Informazioni sulla stazione - visualizza mappa · informazioni · telemetrie · meteo · pacchetto · stato · beacons · messaggi · bollettini · sfoglia · spostando · il mio account
Nominativo, nome o locatore Cancella       
E' possibile effettuare la ricerca utilizzando wildcards (*?) dopo il prefisso. Esempio: OH*
Stazione ricezione AIS ESAJ - mostra grafici
Map loading...
callsign: ESAJ
Destinazione raadioman1@gmail.com APRSIS SWL
Località: 59°25.97' N 24°24.45' E - Locatore KO29EK83VV - mostra mappa - Info/Mappa
4.4 miles Ovest posizione 272° da Tabasalu, Harku vald, Harjumaa, Estonia [?]
8.9 miles Nord posizione 359° da Keila, Keila linn, Harjumaa, Estonia
12.2 miles Ovest posizione 269° da Tallinn, Tallinna linn, Harjumaa, Estonia
54.1 miles Sud posizione 200° da Helsinki, Nyland, Southern Finland, Finland
Posizione precedente 2017-05-01 00:04:29 EDT (18m4s fa)
2017-05-01 07:04:29 EEST orario a Tabasalu, Estonia [?]
Velocità: 19 MPH
Numero posizioni memorizzate 7
Altro SSIDs: ESAJ-1 ESAJ-2 ESAJ-3
Stazione ricevuta in diretta: 51 Sul percorso radio – mostra mappa
Stazioni vicine alla posizione corrente ESAJ - mostra più
nominativo distanza Ultimo ascolto - EDT      nominativo distanza Ultimo ascolto - EDT
ESAJ-10.0 yards 0°2017-04-30 23:07:28 ESAJ-20.0 yards 0°2017-04-28 19:16:41
ESAJ-30.0 yards 0°2017-04-30 18:51:56 Suurupi2.2 miles 334°2017-04-30 23:07:58
Suupupi2.2 miles 334°2017-04-01 14:30:57 Suurup2LH2.7 miles 7°2017-04-30 23:07:58
Suurupi22.7 miles 7°2017-04-30 09:42:05 AVONBORG5.8 miles 50°2017-04-30 23:59:25
NAT-GEO ORION6.4 miles 47°2017-04-25 22:59:28 HEMLAND7.4 miles 12°2017-04-20 03:46:17
HELIOS7.5 miles 56°2017-04-29 15:56:12 SEA STEAMER7.6 miles 26°2017-04-28 23:59:16
HIIESAARE7.9 miles 357°2017-04-20 03:36:16 ES1ALV-38.3 miles 121°2017-04-09 07:11:28
ROSSVIK8.4 miles 80°2017-04-28 04:37:11 WILSON EXPRESS8.7 miles 75°2017-04-06 18:44:17
NEREY8.7 miles 77°2017-05-01 00:00:26 FRIO NAGATO8.8 miles 78°2017-04-28 15:41:34
KRISTIINA8.8 miles 77°2017-04-30 23:50:18 NORTH OCEAN8.8 miles 76°2017-04-30 07:55:39
Stations heard directly by ESAJ
nominativo Dati Prima ricezione - EDT Ultimo ascolto Lon.Est (rx => tx) Long.Est a - EDT
ASTORIA 2 2017-04-30 22:44:12 2017-04-30 22:47:22 KO29ES > KO29EK 24.7 miles 360° 2017-04-30 22:44:12
FINNSTAR 91 2017-04-28 14:46:45 2017-04-30 23:37:06 KO19HM > KO29EK 61.7 miles 275° 2017-04-28 14:46:45
NAFTA 20 2017-04-30 18:42:51 2017-05-01 00:00:26 KO29IL > KO29EK 10.8 miles 80° 2017-05-01 00:00:26
PROTEAS 25 2017-04-30 19:50:08 2017-04-30 21:15:08 KO19VP > KO29EK 26.3 miles 301° 2017-04-30 19:50:08
TARMO 18 2017-04-30 19:58:14 2017-04-30 23:58:25 KO29IL > KO29EK 11.0 miles 81° 2017-04-30 23:58:25
VIIMSI 22 2017-04-30 19:48:07 2017-04-30 23:54:21 KO29IL > KO29EK 10.8 miles 80° 2017-04-30 23:54:21
CONTAINERSHIPS VII 45 2017-04-29 03:47:01 2017-04-30 23:56:23 JO43NV > KO29EK 693.3 miles 243° 2017-04-29 03:47:01
KRAFTCA 15 2017-04-30 19:57:40 2017-04-30 20:27:34 KO29FR > KO29EK 20.4 miles 6° 2017-04-30 20:27:34
MAUREEN S. 66 2017-04-30 19:59:14 2017-04-30 23:56:23 KO29IK > KO29EK 9.2 miles 81° 2017-04-30 23:56:23
FREYJA 30 2017-04-30 19:56:12 2017-04-30 23:56:23 KO29HL > KO29EK 8.9 miles 77° 2017-04-30 23:56:23
HAGLAND BOSS 33 2017-04-30 19:45:05 2017-04-30 23:56:23 KO29HL > KO29EK 8.9 miles 77° 2017-04-30 23:56:23
IDA RAMBOW 1 2017-04-30 13:12:39 2017-04-30 13:12:39 KO29LM > KO29EK 20.3 miles 75° 2017-04-30 13:12:39
Base station 155 2017-04-30 19:58:40 2017-05-01 00:02:53 KP20EA > KO29EK 41.3 miles 358° 2017-05-01 00:02:53
PRIMA CELINA 120 2017-04-30 19:59:14 2017-04-30 22:53:27 KO19VO > KO29EK 25.4 miles 297° 2017-04-30 22:53:27
CALISTO 27 2017-04-30 19:52:39 2017-04-30 21:22:14 KO19RP > KO29EK 35.3 miles 295° 2017-04-30 21:22:14
KWINTEBANK 29 2017-04-30 19:56:12 2017-04-30 23:50:18 KO29HL > KO29EK 9.0 miles 78° 2017-04-30 23:50:18
> 2" ^CD 10 2017-04-28 21:53:18 2017-04-30 22:35:12 KO19OV > KO29EK 52.9 miles 309° 2017-04-30 22:35:12
BBC ADRIATIC 56 2017-04-30 12:50:03 2017-04-30 23:01:34 KO19SJ > KO29EK 31.4 miles 266° 2017-04-30 23:01:34
AHTO-28 26 2017-04-30 19:57:13 2017-04-30 23:37:06 KO29IM > KO29EK 12.5 miles 54° 2017-04-30 23:07:39
MILAN EXPRESS 2 2017-04-30 19:50:08 2017-04-30 20:09:22 KO29LS > KO29EK 29.4 miles 38° 2017-04-30 20:09:22
STEN SUOMI 8 2017-04-30 20:19:43 2017-04-30 21:47:35 KO19XQ > KO29EK 25.0 miles 318° 2017-04-30 21:47:35
KAROLIN 142 2017-04-30 19:58:14 2017-05-01 00:02:28 KO29JK > KO29EK 12.2 miles 85° 2017-05-01 00:02:28
PILOT AHTO-27 9 2017-04-30 06:50:48 2017-04-30 21:49:36 KO19XJ > KO29EK 16.4 miles 256° 2017-04-30 21:45:33
SEARANGER 114 2017-04-30 19:01:05 2017-05-01 00:02:28 KO19GJ > KO29EK 64.6 miles 269° 2017-04-30 19:01:05
EMPIRE 54 2017-04-30 19:26:49 2017-05-01 00:03:28 KO29KN > KO29EK 19.7 miles 64° 2017-05-01 00:03:28
ARKTURUS 209 2017-04-30 19:58:14 2017-05-01 00:02:28 KO29IK > KO29EK 9.4 miles 82° 2017-05-01 00:02:28
VOSSBORG 3 2017-04-29 01:42:43 2017-04-30 21:19:12 JO65IN > KO29EK 509.6 miles 243° 2017-04-29 01:42:43
VIIKING 3 2017-04-30 10:36:52 2017-04-30 23:03:35 KO29IK > KO29EK 10.4 miles 81° 2017-04-30 23:03:35
FINNSEA 47 2017-04-28 05:58:38 2017-04-30 23:01:34 KO19MN > KO29EK 49.3 miles 282° 2017-04-28 05:58:38
LYRIC SUN 88 2017-04-30 21:56:02 2017-05-01 00:02:28 KO29HT > KO29EK 27.8 miles 18° 2017-04-30 21:56:02
VIRU 6 2017-04-30 19:03:06 2017-04-30 22:30:08 KO29IK > KO29EK 9.4 miles 82° 2017-04-30 22:30:08
Met stn 42 2017-04-30 19:03:06 2017-04-30 23:48:16 KO19QH > KO29EK 37.1 miles 255° 2017-04-30 23:48:16
ALSTERDIJK 37 2017-04-30 11:35:55 2017-04-30 21:53:39 KO29MR > KO29EK 30.6 miles 47° 2017-04-30 21:53:39
AVONBORG 26 2017-04-30 19:55:12 2017-04-30 23:53:20 KO29GL > KO29EK 5.8 miles 50° 2017-04-30 23:53:20
NORSUND 81 2017-04-30 19:47:06 2017-04-30 23:39:09 KO19UM > KO29EK 26.1 miles 287° 2017-04-30 19:47:06
Met stn 237 2017-04-30 19:58:14 2017-05-01 00:03:28 KO29KM > KO29EK 16.2 miles 69° 2017-05-01 00:03:28
KRISTEL 24 2017-04-30 19:55:12 2017-04-30 23:55:22 KO29HL > KO29EK 9.0 miles 79° 2017-04-30 23:55:22
SILJA EUROPA 9 2017-04-30 19:22:47 2017-04-30 23:05:37 KO29JK > KO29EK 12.7 miles 86° 2017-04-30 23:05:37
PVL-103_PIKKER 8 2017-04-30 19:18:44 2017-04-30 23:43:12 KO29HK > KO29EK 9.1 miles 79° 2017-04-30 23:43:12
VIKING XPRS 8 2017-04-30 18:39:49 2017-04-30 22:59:32 KO29JK > KO29EK 12.5 miles 86° 2017-04-30 22:59:32
FRANK W. 78 2017-04-28 11:32:30 2017-05-01 00:03:28 KO29KR > KO29EK 26.8 miles 36° 2017-04-28 11:32:30
CELINA 1 2017-04-30 19:15:41 2017-04-30 19:15:41 KO29JO > KO29EK 17.8 miles 52° 2017-04-30 19:15:41
KRISTIINA 23 2017-04-30 19:51:09 2017-04-30 23:39:09 KO29HL > KO29EK 8.8 miles 77° 2017-04-30 23:39:09
MIRAMAR 65 2017-04-30 19:56:12 2017-04-30 22:25:04 KO19WI > KO29EK 18.0 miles 256° 2017-04-30 21:26:17
MEGASTAR 22 2017-04-30 19:54:11 2017-04-30 23:53:20 KO29JK > KO29EK 12.8 miles 86° 2017-04-30 23:53:20
SPIRIT II 72 2017-04-22 03:21:18 2017-04-30 23:59:25 KO19TO > KO29EK 29.8 miles 292° 2017-04-30 22:36:13
NEREY 33 2017-04-30 19:54:11 2017-04-30 23:54:21 KO29HL > KO29EK 8.7 miles 77° 2017-04-30 23:54:21
VIKING SKY 193 2017-04-30 18:30:01 2017-05-01 00:03:28 KO19FH > KO29EK 69.4 miles 265° 2017-04-30 18:30:01
SULA 190 2017-04-30 19:58:14 2017-05-01 00:03:28 KO29IL > KO29EK 10.6 miles 80° 2017-05-01 00:03:28
KORD WIND 180 2017-04-30 19:59:14 2017-05-01 00:03:28 KO29IK > KO29EK 10.6 miles 81° 2017-05-01 00:03:28
238023000 3 2017-04-30 19:25:49 2017-04-30 20:49:51 KO29MT > KO29EK 32.6 miles 40° 2017-04-30 20:49:51

Solo le stazioni ricevute sono visualizzate La gamma delle statistiche mostra alcune lunghe ripetizioni, perché alcuni digipeaters aggiungono non correttamente un altro digipeater. Controllare i pacchetti raw.
Questo sito e'
Questa pagina mostra in tempo reale informazioni di Automatic Position Reporting System Internet network (APRS-IS). APRS e' usato da stazioni di Radioamatori che in tempo reale trasmettono posizioni, dati meteo, telemetrie e messaggi via radio. Un veicolo equipaggiato con un ricevitore GPS, un transceiver VHF o transceiver HF e un piccolo computer (tracker) trasmettera' i dati con tutte le informazioni necessarie alla localizzazione, al piu' vicino Igate o Digi..dati che saranno poi inviati in Internet. I sistemi connessi ad internet trasmetteranno i dati in tutto il mondo.
FAQ · Blog · Gruppo di discussione · Link a aprs.fi · Siti AIS · Stato del servizio · Database statistica · Pubblicita' su aprs.fi · Dettagli tecnici · API · Modifiche log · Cambio pianificazione · Riconoscimenti e ringraziamenti · Modalita' del servizio · iPhone/iPad APRS